Time;durP1;ratioP1;P1;durP2;ratioP2;P2;SDS_P1;SDS_P2;PMS_P1;PMS_P2;Temp;Humidity;BMP_temperature;BMP_pressure;BME280_temperature;BME280_humidity;BME280_pressure;Samples;Min_cycle;Max_cycle;Signal;HPM_P1;HPM_P2
2022/12/12 00:01:30;;;;;;;;;;;3.10;99.90;;;;;;5092579;28;20030;-84
2022/12/12 00:03:55;;;;;;;;;;;3.10;99.90;;;;;;5092849;28;19915;-84
2022/12/12 00:06:21;;;;;;;;;;;3.10;99.90;;;;;;5091600;28;20373;-84
2022/12/12 00:08:47;;;;;;;;;;;3.10;99.90;;;;;;5091436;28;19915;-84
2022/12/12 00:11:12;;;;;;;;;;;3.10;99.90;;;;;;5091170;28;19973;-84
2022/12/12 00:13:38;;;;;;;;;;;3.10;99.90;;;;;;5092576;28;19908;-84
2022/12/12 00:16:04;;;;;;;;;;;3.10;99.90;;;;;;5092713;28;19912;-85
2022/12/12 00:18:29;;;;;;;;;;;3.10;99.90;;;;;;5091566;28;20392;-84
2022/12/12 00:20:55;;;;;;;;;;;3.10;99.90;;;;;;5091503;28;20385;-84
2022/12/12 00:23:24;;;;;;;;;;;3.10;99.90;;;;;;5092646;28;20277;-85
2022/12/12 00:25:54;;;;;;;;;;;3.10;99.90;;;;;;5091584;28;19953;-84
2022/12/12 00:28:19;;;;;;;;;;;3.10;99.90;;;;;;5091395;28;19914;-84
2022/12/12 00:30:45;;;;;;;;;;;3.00;99.90;;;;;;5092406;28;20007;-85
2022/12/12 00:33:10;;;;;;;;;;;3.00;99.90;;;;;;5092442;28;19915;-84
2022/12/12 00:35:36;;;;;;;;;;;3.00;99.90;;;;;;5091216;28;19916;-84
2022/12/12 00:38:01;;;;;;;;;;;3.00;99.90;;;;;;5092501;28;19908;-84
2022/12/12 00:40:27;;;;;;;;;;;2.90;99.90;;;;;;5091173;28;20414;-83
2022/12/12 00:42:52;;;;;;;;;;;2.90;99.90;;;;;;5090947;28;19915;-84
2022/12/12 00:45:18;;;;;;;;;;;2.90;99.90;;;;;;5091068;28;19908;-84
2022/12/12 00:47:43;;;;;;;;;;;2.90;99.90;;;;;;5091236;28;19938;-84
2022/12/12 00:50:09;;;;;;;;;;;2.90;99.90;;;;;;5091114;28;19915;-84
2022/12/12 00:52:34;;;;;;;;;;;2.90;99.90;;;;;;5092317;28;20293;-84
2022/12/12 00:55:00;;;;;;;;;;;2.90;99.90;;;;;;5091123;28;20354;-84
2022/12/12 00:57:25;;;;;;;;;;;2.90;99.90;;;;;;5091054;28;19912;-84
2022/12/12 00:59:51;;;;;;;;;;;2.90;99.90;;;;;;5090846;28;20292;-85
2022/12/12 01:02:16;;;;;;;;;;;2.90;99.90;;;;;;5091060;28;19934;-84
2022/12/12 01:04:41;;;;;;;;;;;2.90;99.90;;;;;;5091121;28;19970;-84
2022/12/12 01:07:07;;;;;;;;;;;2.90;99.90;;;;;;5091002;28;19970;-84
2022/12/12 01:09:33;;;;;;;;;;;2.90;99.90;;;;;;5090865;28;20331;-84
2022/12/12 01:11:58;;;;;;;;;;;2.90;99.90;;;;;;5091907;28;19908;-84
2022/12/12 01:14:24;;;;;;;;;;;2.90;99.90;;;;;;5090929;28;20007;-84
2022/12/12 01:16:50;;;;;;;;;;;2.90;99.90;;;;;;5092072;28;19916;-84
2022/12/12 01:19:15;;;;;;;;;;;2.90;99.90;;;;;;5090758;28;19917;-84
2022/12/12 01:21:40;;;;;;;;;;;2.90;99.90;;;;;;5090628;28;19908;-85
2022/12/12 01:24:06;;;;;;;;;;;2.90;99.90;;;;;;5092051;28;20515;-84
2022/12/12 01:26:32;;;;;;;;;;;2.90;99.90;;;;;;5092549;28;19908;-84
2022/12/12 01:28:57;;;;;;;;;;;2.90;99.90;;;;;;5094638;28;20293;-84
2022/12/12 01:31:23;;;;;;;;;;;2.80;99.90;;;;;;5094302;28;19908;-84
2022/12/12 01:33:49;;;;;;;;;;;2.80;99.90;;;;;;5095498;28;20357;-84
2022/12/12 01:36:21;;;;;;;;;;;2.80;99.90;;;;;;5095427;28;19919;-84
2022/12/12 01:38:47;;;;;;;;;;;2.80;99.90;;;;;;5094227;28;20379;-84
2022/12/12 01:41:13;;;;;;;;;;;2.80;99.90;;;;;;5093934;28;19908;-84
2022/12/12 01:43:39;;;;;;;;;;;2.80;99.90;;;;;;5094153;28;19908;-85
2022/12/12 01:46:07;;;;;;;;;;;2.80;99.90;;;;;;5094030;28;19915;-85
2022/12/12 01:48:35;;;;;;;;;;;2.70;99.90;;;;;;5094037;28;19953;-84
2022/12/12 01:51:03;;;;;;;;;;;2.70;99.90;;;;;;5093698;28;19939;-84
2022/12/12 01:53:30;;;;;;;;;;;2.70;99.90;;;;;;5093931;28;19962;-85
2022/12/12 01:55:56;;;;;;;;;;;2.80;99.90;;;;;;5095041;28;19916;-85
2022/12/12 01:58:21;;;;;;;;;;;2.80;99.90;;;;;;5093817;28;19908;-84
2022/12/12 02:00:47;;;;;;;;;;;2.80;99.90;;;;;;5093778;28;19915;-84
2022/12/12 02:03:12;;;;;;;;;;;2.80;99.90;;;;;;5093528;28;20381;-83
2022/12/12 02:05:40;;;;;;;;;;;2.80;99.90;;;;;;5093674;28;19908;-84
2022/12/12 02:08:07;;;;;;;;;;;2.80;99.90;;;;;;5093666;28;19943;-84
2022/12/12 02:10:32;;;;;;;;;;;2.80;99.90;;;;;;5093557;28;19953;-84
2022/12/12 02:13:03;;;;;;;;;;;2.80;99.90;;;;;;5093323;28;19908;-84
2022/12/12 02:15:32;;;;;;;;;;;2.80;99.90;;;;;;5094839;28;20395;-83
2022/12/12 02:18:18;;;;;;;;;;;2.80;99.90;;;;;;5094819;28;19908;-84
2022/12/12 02:20:49;;;;;;;;;;;2.70;99.90;;;;;;5085913;28;19916;-84
2022/12/12 02:23:34;;;;;;;;;;;2.70;99.90;;;;;;5093261;28;19965;-84
2022/12/12 02:26:02;;;;;;;;;;;2.70;99.90;;;;;;5093331;28;19908;-83
2022/12/12 02:28:34;;;;;;;;;;;2.70;99.90;;;;;;5093210;28;19908;-84
2022/12/12 02:31:14;;;;;;;;;;;2.60;99.90;;;;;;5093107;28;19908;-84
2022/12/12 02:33:49;;;;;;;;;;;2.60;99.90;;;;;;5093254;28;20005;-84
2022/12/12 02:36:23;;;;;;;;;;;2.60;99.90;;;;;;5093121;28;20381;-84
2022/12/12 02:39:27;;;;;;;;;;;2.50;99.90;;;;;;5093216;28;20300;-84
2022/12/12 02:41:55;;;;;;;;;;;2.50;99.90;;;;;;5071544;28;19915;-86
2022/12/12 02:44:21;;;;;;;;;;;2.40;99.90;;;;;;5055048;28;19915;-86
2022/12/12 02:46:46;;;;;;;;;;;2.30;99.90;;;;;;5071839;28;19908;-86
2022/12/12 02:49:15;;;;;;;;;;;2.30;99.90;;;;;;5092985;28;19923;-86
2022/12/12 02:51:41;;;;;;;;;;;2.30;99.90;;;;;;5092673;28;19947;-86
2022/12/12 02:54:12;;;;;;;;;;;2.30;99.90;;;;;;5094171;28;19950;-86
2022/12/12 02:56:43;;;;;;;;;;;2.20;99.90;;;;;;5092886;28;19912;-86
2022/12/12 02:59:10;;;;;;;;;;;2.20;99.90;;;;;;5092762;28;19931;-86
2022/12/12 03:01:36;;;;;;;;;;;2.20;99.90;;;;;;5092569;28;20373;-86
2022/12/12 03:09:58;;;;;;;;;;;2.20;99.90;;;;;;5093761;28;19916;-83
2022/12/12 03:12:40;;;;;;;;;;;2.20;99.90;;;;;;5092244;28;19915;-84
2022/12/12 03:15:31;;;;;;;;;;;2.10;99.90;;;;;;5093805;28;19908;-84
2022/12/12 03:18:03;;;;;;;;;;;2.10;99.90;;;;;;5090305;28;19938;-84
2022/12/12 03:20:41;;;;;;;;;;;2.10;99.90;;;;;;5092131;28;21547;-87
2022/12/12 03:23:12;;;;;;;;;;;2.10;99.90;;;;;;5093477;28;19908;-86
2022/12/12 03:25:43;;;;;;;;;;;2.10;99.90;;;;;;5092651;28;19916;-85
2022/12/12 03:28:17;;;;;;;;;;;2.10;99.90;;;;;;5092370;28;19908;-84
2022/12/12 03:30:45;;;;;;;;;;;2.10;99.90;;;;;;5093485;28;20449;-83
2022/12/12 03:33:19;;;;;;;;;;;2.10;99.90;;;;;;5092418;28;20268;-85
2022/12/12 03:35:58;;;;;;;;;;;2.00;99.90;;;;;;5092184;28;19965;-85
2022/12/12 03:38:27;;;;;;;;;;;1.90;99.90;;;;;;5093595;28;20048;-84
2022/12/12 03:40:54;;;;;;;;;;;1.90;99.90;;;;;;5093334;28;19962;-85
2022/12/12 03:43:28;;;;;;;;;;;1.80;99.90;;;;;;5093318;28;19908;-84
2022/12/12 03:46:12;;;;;;;;;;;1.80;99.90;;;;;;5092012;28;19915;-84
2022/12/12 03:48:43;;;;;;;;;;;1.70;99.90;;;;;;5091425;28;19912;-85
2022/12/12 03:51:21;;;;;;;;;;;1.60;99.90;;;;;;5091809;28;20373;-85
2022/12/12 03:53:53;;;;;;;;;;;1.60;99.90;;;;;;5091933;28;19955;-84
2022/12/12 03:56:29;;;;;;;;;;;1.50;99.90;;;;;;5091778;28;19957;-84
2022/12/12 03:59:01;;;;;;;;;;;1.50;99.90;;;;;;5091645;28;19908;-83
2022/12/12 04:01:45;;;;;;;;;;;1.40;99.90;;;;;;5094604;28;19977;-84
2022/12/12 04:04:23;;;;;;;;;;;1.40;99.90;;;;;;5105066;28;19912;-85
2022/12/12 04:06:53;;;;;;;;;;;1.30;99.90;;;;;;5094371;28;19908;-84
2022/12/12 04:14:56;;;;;;;;;;;1.10;99.90;;;;;;5093366;28;19915;-85
2022/12/12 04:17:27;;;;;;;;;;;1.20;99.90;;;;;;5093146;28;19912;-84
2022/12/12 04:25:28;;;;;;;;;;;1.20;99.90;;;;;;5092972;28;20428;-84
2022/12/12 04:27:56;;;;;;;;;;;1.20;99.90;;;;;;5091386;28;19908;-84
2022/12/12 04:30:23;;;;;;;;;;;1.20;99.90;;;;;;5091585;28;20277;-83
2022/12/12 04:33:12;;;;;;;;;;;1.20;99.90;;;;;;5091207;28;19908;-84
2022/12/12 04:35:40;;;;;;;;;;;1.20;99.90;;;;;;5085811;28;19965;-85
2022/12/12 04:38:08;;;;;;;;;;;1.20;99.90;;;;;;5091782;28;20377;-85
2022/12/12 04:40:41;;;;;;;;;;;1.20;99.90;;;;;;5091760;28;19908;-85
2022/12/12 04:43:14;;;;;;;;;;;1.20;99.90;;;;;;5091234;28;19908;-85
2022/12/12 04:45:42;;;;;;;;;;;1.20;99.90;;;;;;5091341;28;19919;-84
2022/12/12 04:48:09;;;;;;;;;;;1.10;99.90;;;;;;5091345;28;19915;-84
2022/12/12 04:50:35;;;;;;;;;;;1.20;99.90;;;;;;5091183;28;19908;-84
2022/12/12 04:53:03;;;;;;;;;;;1.20;99.90;;;;;;5091024;28;20391;-84
2022/12/12 04:55:31;;;;;;;;;;;1.10;99.90;;;;;;5091242;28;19937;-85
2022/12/12 04:57:57;;;;;;;;;;;1.10;99.90;;;;;;5091230;28;19908;-84
2022/12/12 05:00:24;;;;;;;;;;;1.10;99.90;;;;;;5091172;28;19908;-84
2022/12/12 05:03:08;;;;;;;;;;;1.20;99.90;;;;;;5094946;28;20285;-84
2022/12/12 05:05:38;;;;;;;;;;;1.10;99.90;;;;;;5095143;28;19908;-84
2022/12/12 05:08:06;;;;;;;;;;;1.10;99.90;;;;;;5096267;28;20020;-85
2022/12/12 05:10:31;;;;;;;;;;;1.10;99.90;;;;;;5094814;28;19938;-84
2022/12/12 05:12:58;;;;;;;;;;;1.10;99.90;;;;;;5096119;28;19908;-85
2022/12/12 05:15:24;;;;;;;;;;;1.00;99.90;;;;;;5095066;28;19909;-85
2022/12/12 05:17:53;;;;;;;;;;;1.00;99.90;;;;;;5095214;28;19912;-85
2022/12/12 05:20:18;;;;;;;;;;;1.00;99.90;;;;;;5094879;28;19917;-84
2022/12/12 05:22:44;;;;;;;;;;;1.00;99.90;;;;;;5094651;28;19915;-84
2022/12/12 05:25:09;;;;;;;;;;;1.00;99.90;;;;;;5096228;28;20289;-85
2022/12/12 05:27:35;;;;;;;;;;;1.00;99.90;;;;;;5094783;28;19991;-85
2022/12/12 05:30:00;;;;;;;;;;;0.90;99.90;;;;;;5094883;28;20380;-87
2022/12/12 05:32:26;;;;;;;;;;;0.90;99.90;;;;;;5094455;28;20336;-87
2022/12/12 05:34:51;;;;;;;;;;;0.80;99.90;;;;;;5095047;28;20434;-85
2022/12/12 05:37:17;;;;;;;;;;;0.80;99.90;;;;;;5096177;28;19912;-85
2022/12/12 05:39:42;;;;;;;;;;;0.80;99.90;;;;;;5094382;28;19915;-84
2022/12/12 05:42:07;;;;;;;;;;;0.80;99.90;;;;;;5094155;28;19908;-84
2022/12/12 05:44:33;;;;;;;;;;;0.80;99.90;;;;;;5094194;28;19909;-83
2022/12/12 05:47:05;;;;;;;;;;;0.80;99.90;;;;;;5094280;28;19999;-84
2022/12/12 05:49:31;;;;;;;;;;;0.80;99.90;;;;;;5094273;28;19955;-84
2022/12/12 05:51:56;;;;;;;;;;;0.80;99.90;;;;;;5093932;28;19959;-83
2022/12/12 05:54:22;;;;;;;;;;;0.80;99.90;;;;;;5094218;28;19908;-84
2022/12/12 05:56:47;;;;;;;;;;;0.70;99.90;;;;;;5093901;28;20367;-84
2022/12/12 05:59:13;;;;;;;;;;;0.70;99.90;;;;;;5093881;28;19916;-84
2022/12/12 06:01:38;;;;;;;;;;;0.70;99.90;;;;;;5093762;28;19957;-84
2022/12/12 06:04:04;;;;;;;;;;;0.70;99.90;;;;;;5094089;28;19908;-84
2022/12/12 06:06:30;;;;;;;;;;;0.70;99.90;;;;;;5093764;28;20057;-84
2022/12/12 06:08:55;;;;;;;;;;;0.70;99.90;;;;;;5094851;28;19908;-83
2022/12/12 06:11:21;;;;;;;;;;;0.70;99.90;;;;;;5094379;28;20041;-83
2022/12/12 06:13:46;;;;;;;;;;;0.60;99.90;;;;;;5094753;28;19915;-84
2022/12/12 06:16:14;;;;;;;;;;;0.60;99.90;;;;;;5094787;28;19912;-84
2022/12/12 06:18:39;;;;;;;;;;;0.60;99.90;;;;;;5094625;28;20005;-84
2022/12/12 06:21:09;;;;;;;;;;;0.50;99.90;;;;;;5093372;28;19947;-84
2022/12/12 06:23:38;;;;;;;;;;;0.60;99.90;;;;;;5093460;28;19908;-84
2022/12/12 06:26:05;;;;;;;;;;;0.60;99.90;;;;;;5094748;28;19915;-84
2022/12/12 06:28:31;;;;;;;;;;;0.60;99.90;;;;;;5093679;28;20369;-84
2022/12/12 06:30:56;;;;;;;;;;;0.70;99.90;;;;;;5093183;28;19919;-84
2022/12/12 06:33:22;;;;;;;;;;;0.70;99.90;;;;;;5093381;28;19908;-84
2022/12/12 06:35:58;;;;;;;;;;;0.60;99.90;;;;;;5093693;28;20365;-84
2022/12/12 06:38:23;;;;;;;;;;;0.60;99.90;;;;;;5094418;28;19954;-84
2022/12/12 06:40:49;;;;;;;;;;;0.50;99.90;;;;;;5093049;28;20381;-84
2022/12/12 06:43:14;;;;;;;;;;;0.50;99.90;;;;;;5092883;28;20005;-84
2022/12/12 06:45:40;;;;;;;;;;;0.50;99.90;;;;;;5093101;28;19915;-84
2022/12/12 06:48:05;;;;;;;;;;;0.50;99.90;;;;;;5094252;28;19908;-84
2022/12/12 06:50:31;;;;;;;;;;;0.40;99.90;;;;;;5092993;28;19908;-84
2022/12/12 06:52:56;;;;;;;;;;;0.40;99.90;;;;;;5092646;28;19912;-84
2022/12/12 06:55:22;;;;;;;;;;;0.30;99.90;;;;;;5093050;28;19915;-83
2022/12/12 06:57:47;;;;;;;;;;;0.30;99.90;;;;;;5094400;28;19916;-83
2022/12/12 07:00:13;;;;;;;;;;;0.30;99.90;;;;;;5094057;28;19995;-84
2022/12/12 07:02:38;;;;;;;;;;;0.30;99.90;;;;;;5092636;28;19988;-84
2022/12/12 07:05:04;;;;;;;;;;;0.30;99.90;;;;;;5092847;28;19912;-83
2022/12/12 07:07:29;;;;;;;;;;;0.30;99.90;;;;;;5093935;28;20391;-84
2022/12/12 07:09:55;;;;;;;;;;;0.20;99.90;;;;;;5092643;28;19908;-84
2022/12/12 07:12:20;;;;;;;;;;;0.30;99.90;;;;;;5092566;28;20415;-84
2022/12/12 07:14:46;;;;;;;;;;;0.30;99.90;;;;;;5092627;28;19931;-83
2022/12/12 07:17:11;;;;;;;;;;;0.40;99.90;;;;;;5093899;28;19912;-83
2022/12/12 07:19:37;;;;;;;;;;;0.50;99.90;;;;;;5092428;28;19920;-84
2022/12/12 07:22:02;;;;;;;;;;;0.50;99.90;;;;;;5092096;28;19909;-84
2022/12/12 07:24:27;;;;;;;;;;;0.50;99.90;;;;;;5091678;28;19931;-84
2022/12/12 07:26:53;;;;;;;;;;;0.60;99.90;;;;;;5092526;28;19908;-84
2022/12/12 07:29:18;;;;;;;;;;;0.50;99.90;;;;;;5092199;28;20341;-83
2022/12/12 07:31:44;;;;;;;;;;;0.60;99.90;;;;;;5093142;28;19912;-84
2022/12/12 07:34:09;;;;;;;;;;;0.60;99.90;;;;;;5093434;28;19918;-83
2022/12/12 07:36:35;;;;;;;;;;;0.50;99.90;;;;;;5093238;28;19912;-83
2022/12/12 07:39:00;;;;;;;;;;;0.50;99.90;;;;;;5091980;28;19908;-84
2022/12/12 07:41:26;;;;;;;;;;;0.50;99.90;;;;;;5091791;28;19915;-83
2022/12/12 07:43:51;;;;;;;;;;;0.60;99.90;;;;;;5092015;28;19959;-83
2022/12/12 07:46:18;;;;;;;;;;;0.50;99.90;;;;;;5092028;28;20381;-84
2022/12/12 07:48:44;;;;;;;;;;;0.50;99.90;;;;;;5092974;28;19908;-83
2022/12/12 07:51:10;;;;;;;;;;;0.60;99.90;;;;;;5091499;28;20045;-84
2022/12/12 07:53:35;;;;;;;;;;;0.60;99.90;;;;;;5093032;28;19990;-84
2022/12/12 07:56:03;;;;;;;;;;;0.60;99.90;;;;;;5091612;28;19955;-83
2022/12/12 07:58:29;;;;;;;;;;;0.60;99.90;;;;;;5092856;28;19962;-84
2022/12/12 08:00:54;;;;;;;;;;;0.70;99.90;;;;;;5091630;28;20381;-85
2022/12/12 08:03:20;;;;;;;;;;;0.70;99.90;;;;;;5093023;28;19909;-83
2022/12/12 08:05:45;;;;;;;;;;;0.70;99.90;;;;;;5091242;28;20000;-84
2022/12/12 08:08:11;;;;;;;;;;;0.70;99.90;;;;;;5091750;28;19908;-84
2022/12/12 08:10:37;;;;;;;;;;;0.60;99.90;;;;;;5092825;28;20069;-83
2022/12/12 08:13:02;;;;;;;;;;;0.60;99.90;;;;;;5091463;28;19908;-84
2022/12/12 08:15:28;;;;;;;;;;;0.60;99.90;;;;;;5091417;28;20262;-83
2022/12/12 08:17:53;;;;;;;;;;;0.60;99.90;;;;;;5091426;28;19908;-84
2022/12/12 08:20:19;;;;;;;;;;;0.60;99.90;;;;;;5092508;28;19920;-84
2022/12/12 08:22:44;;;;;;;;;;;0.60;99.90;;;;;;5091192;28;19918;-84
2022/12/12 08:25:10;;;;;;;;;;;0.60;99.90;;;;;;5091330;28;19908;-84
2022/12/12 08:27:35;;;;;;;;;;;0.60;99.90;;;;;;5092663;28;19908;-83
2022/12/12 08:30:01;;;;;;;;;;;0.60;99.90;;;;;;5091259;28;19909;-84
2022/12/12 08:32:26;;;;;;;;;;;0.50;99.90;;;;;;5092349;28;19908;-83
2022/12/12 08:34:55;;;;;;;;;;;0.50;99.90;;;;;;5092082;28;20326;-84
2022/12/12 08:37:21;;;;;;;;;;;0.50;99.90;;;;;;5095811;28;19912;-84
2022/12/12 08:39:46;;;;;;;;;;;0.50;99.90;;;;;;5095416;28;20411;-84
2022/12/12 08:42:12;;;;;;;;;;;0.50;99.90;;;;;;5095128;28;19908;-84
2022/12/12 08:44:37;;;;;;;;;;;0.50;99.90;;;;;;5096964;28;19915;-86
2022/12/12 08:47:03;;;;;;;;;;;0.50;99.90;;;;;;5095383;28;19999;-84
2022/12/12 08:49:28;;;;;;;;;;;0.50;99.90;;;;;;5095392;28;19908;-83
2022/12/12 08:51:54;;;;;;;;;;;0.50;99.90;;;;;;5095232;28;19908;-83
2022/12/12 08:54:19;;;;;;;;;;;0.50;99.90;;;;;;5095482;28;20383;-83
2022/12/12 08:56:45;;;;;;;;;;;0.60;99.90;;;;;;5096625;28;20014;-84
2022/12/12 08:59:10;;;;;;;;;;;0.60;99.90;;;;;;5095593;28;19908;-83
2022/12/12 09:01:36;;;;;;;;;;;0.60;99.90;;;;;;5095182;28;19908;-84
2022/12/12 09:04:01;;;;;;;;;;;0.60;99.90;;;;;;5095180;28;19937;-84
2022/12/12 09:06:27;;;;;;;;;;;0.60;99.90;;;;;;5095154;28;19908;-83
2022/12/12 09:08:54;;;;;;;;;;;0.70;99.90;;;;;;5095117;28;19908;-84
2022/12/12 09:11:19;;;;;;;;;;;0.70;99.90;;;;;;5094804;28;19913;-84
2022/12/12 09:13:45;;;;;;;;;;;0.70;99.90;;;;;;5088031;28;20377;-84
2022/12/12 09:16:10;;;;;;;;;;;0.70;99.90;;;;;;5084282;28;20003;-84
2022/12/12 09:18:36;;;;;;;;;;;0.70;99.90;;;;;;5094257;28;19908;-83
2022/12/12 09:21:02;;;;;;;;;;;0.80;99.90;;;;;;5095662;28;20016;-85
2022/12/12 09:23:27;;;;;;;;;;;0.80;99.90;;;;;;5094345;28;19915;-85
2022/12/12 09:25:53;;;;;;;;;;;0.80;99.90;;;;;;5094362;28;19908;-85
2022/12/12 09:28:20;;;;;;;;;;;0.80;99.90;;;;;;5094643;28;20029;-86
2022/12/12 09:30:45;;;;;;;;;;;0.90;99.90;;;;;;5094506;28;19908;-84
2022/12/12 09:33:12;;;;;;;;;;;0.90;99.90;;;;;;5095305;28;20381;-85
2022/12/12 09:35:37;;;;;;;;;;;1.00;99.90;;;;;;5094120;28;19977;-85
2022/12/12 09:38:03;;;;;;;;;;;1.00;99.90;;;;;;5094832;28;19912;-84
2022/12/12 09:40:40;;;;;;;;;;;1.00;99.90;;;;;;5094010;28;20006;-83
2022/12/12 09:43:06;;;;;;;;;;;1.10;99.90;;;;;;5093989;28;19944;-83
2022/12/12 09:45:33;;;;;;;;;;;1.20;99.90;;;;;;5093768;28;20008;-84
2022/12/12 09:48:00;;;;;;;;;;;1.20;99.90;;;;;;5093207;28;19973;-83
2022/12/12 09:50:31;;;;;;;;;;;1.30;99.90;;;;;;5093862;28;19955;-83
2022/12/12 09:52:59;;;;;;;;;;;1.40;99.90;;;;;;5093992;28;20011;-83
2022/12/12 09:55:38;;;;;;;;;;;1.40;99.90;;;;;;5095219;28;19919;-82
2022/12/12 09:58:07;;;;;;;;;;;1.50;99.90;;;;;;5095028;28;19912;-82
2022/12/12 10:00:35;;;;;;;;;;;1.50;99.90;;;;;;5093637;28;19912;-83
2022/12/12 10:03:16;;;;;;;;;;;1.50;99.90;;;;;;5093351;28;20404;-83
2022/12/12 10:05:45;;;;;;;;;;;1.60;99.90;;;;;;5093423;28;19915;-83
2022/12/12 10:08:31;;;;;;;;;;;1.70;99.90;;;;;;5094261;28;20334;-83
2022/12/12 10:10:58;;;;;;;;;;;1.80;99.90;;;;;;5096790;28;19935;-83
2022/12/12 10:13:25;;;;;;;;;;;1.90;99.90;;;;;;5095475;28;20392;-83
2022/12/12 10:16:07;;;;;;;;;;;1.80;99.90;;;;;;5094128;28;19923;-84
2022/12/12 10:18:34;;;;;;;;;;;1.90;99.90;;;;;;5096158;28;19908;-84
2022/12/12 10:21:01;;;;;;;;;;;2.00;99.90;;;;;;5095389;28;20021;-84
2022/12/12 10:23:27;;;;;;;;;;;2.00;99.90;;;;;;5096926;28;20274;-85
2022/12/12 10:25:55;;;;;;;;;;;2.10;99.90;;;;;;5098543;28;19930;-83
2022/12/12 10:28:23;;;;;;;;;;;2.10;99.90;;;;;;5097305;28;19908;-83
2022/12/12 10:31:07;;;;;;;;;;;2.20;99.90;;;;;;5094164;28;19976;-82
2022/12/12 10:33:50;;;;;;;;;;;2.30;99.90;;;;;;5094992;28;19955;-83
2022/12/12 10:36:28;;;;;;;;;;;2.30;99.90;;;;;;5093521;28;19919;-82
2022/12/12 10:39:10;;;;;;;;;;;2.40;99.90;;;;;;5097465;28;20017;-83
2022/12/12 10:41:49;;;;;;;;;;;2.50;99.90;;;;;;5096325;28;19909;-82
2022/12/12 10:44:14;;;;;;;;;;;2.60;99.90;;;;;;5093605;28;19908;-85
2022/12/12 10:46:46;;;;;;;;;;;2.60;99.90;;;;;;5091723;28;19930;-84
2022/12/12 10:49:17;;;;;;;;;;;2.60;99.90;;;;;;5093389;28;20388;-84
2022/12/12 10:51:44;;;;;;;;;;;2.70;99.90;;;;;;5094374;28;19912;-83
2022/12/12 10:54:17;;;;;;;;;;;2.80;99.90;;;;;;5096073;28;20010;-84
2022/12/12 10:57:01;;;;;;;;;;;3.00;99.90;;;;;;5095633;28;20400;-83
2022/12/12 10:59:27;;;;;;;;;;;3.20;99.90;;;;;;5096384;28;19908;-84
2022/12/12 11:01:57;;;;;;;;;;;3.30;99.90;;;;;;5099900;28;20297;-83
2022/12/12 11:04:23;;;;;;;;;;;3.40;99.90;;;;;;5096819;28;19912;-84
2022/12/12 11:06:50;;;;;;;;;;;3.80;99.90;;;;;;5101365;28;20523;-84
2022/12/12 11:09:18;;;;;;;;;;;4.50;99.90;;;;;;5097041;28;19908;-84
2022/12/12 11:11:56;;;;;;;;;;;5.30;99.90;;;;;;5099129;28;19912;-85
2022/12/12 11:14:25;;;;;;;;;;;6.00;99.90;;;;;;5106260;28;19951;-84
2022/12/12 11:16:51;;;;;;;;;;;6.20;99.90;;;;;;5102663;28;19919;-84
2022/12/12 11:19:18;;;;;;;;;;;6.00;99.90;;;;;;5102976;28;19916;-83
2022/12/12 11:21:44;;;;;;;;;;;5.90;99.90;;;;;;5101776;28;19915;-84
2022/12/12 11:24:14;;;;;;;;;;;5.90;99.90;;;;;;5084231;28;19987;-85
2022/12/12 11:27:06;;;;;;;;;;;6.30;99.90;;;;;;5079306;28;19919;-85
2022/12/12 11:29:48;;;;;;;;;;;7.70;99.90;;;;;;5071695;28;19908;-85
2022/12/12 11:32:24;;;;;;;;;;;8.80;99.90;;;;;;5071664;28;19908;-86
2022/12/12 11:34:52;;;;;;;;;;;9.60;99.90;;;;;;5071483;28;19916;-85
2022/12/12 11:37:19;;;;;;;;;;;10.50;97.40;;;;;;5071521;28;19919;-85
2022/12/12 11:39:45;;;;;;;;;;;11.40;94.30;;;;;;5071663;28;19920;-85
2022/12/12 11:42:13;;;;;;;;;;;12.90;90.50;;;;;;5072757;28;19908;-85
2022/12/12 11:44:39;;;;;;;;;;;14.70;82.90;;;;;;5072161;28;20114;-87
2022/12/12 11:47:24;;;;;;;;;;;16.60;73.70;;;;;;5091638;28;20005;-85
2022/12/12 11:49:52;;;;;;;;;;;17.30;62.20;;;;;;5092950;28;19908;-87
2022/12/12 11:52:19;;;;;;;;;;;17.90;59.00;;;;;;5091654;28;19908;-85
2022/12/12 11:54:45;;;;;;;;;;;17.90;55.70;;;;;;5091998;28;19912;-87
2022/12/12 11:57:16;;;;;;;;;;;17.30;54.40;;;;;;5091971;28;20403;-88
2022/12/12 11:59:54;;;;;;;;;;;16.90;52.90;;;;;;5092067;28;20010;-87
2022/12/12 12:02:22;;;;;;;;;;;17.30;53.60;;;;;;5091730;28;19912;-87
2022/12/12 12:04:48;;;;;;;;;;;17.70;52.50;;;;;;5091979;28;19908;-87
2022/12/12 12:07:40;;;;;;;;;;;17.40;51.60;;;;;;5091922;28;19998;-88
2022/12/12 12:10:11;;;;;;;;;;;16.80;50.80;;;;;;5082833;28;19909;-88
2022/12/12 12:12:45;;;;;;;;;;;17.70;50.60;;;;;;5091506;28;19957;-88
2022/12/12 12:15:14;;;;;;;;;;;18.60;48.80;;;;;;5091907;28;19939;-87
2022/12/12 12:17:39;;;;;;;;;;;19.20;47.60;;;;;;5091599;28;19916;-88
2022/12/12 12:20:05;;;;;;;;;;;19.10;47.10;;;;;;5091838;28;19916;-88
2022/12/12 12:22:36;;;;;;;;;;;19.10;46.80;;;;;;5092705;28;19915;-88
2022/12/12 12:25:40;;;;;;;;;;;19.50;46.50;;;;;;5091778;28;19908;-88
2022/12/12 12:28:15;;;;;;;;;;;19.80;46.60;;;;;;5090453;28;19912;-88
2022/12/12 12:30:41;;;;;;;;;;;20.50;46.10;;;;;;5073941;28;20397;-87
2022/12/12 12:33:25;;;;;;;;;;;21.20;45.30;;;;;;5090861;28;19955;-87
2022/12/12 12:36:03;;;;;;;;;;;20.60;43.20;;;;;;5091544;28;19908;-87
2022/12/12 12:38:41;;;;;;;;;;;18.30;44.20;;;;;;5091652;28;19909;-87
2022/12/12 12:41:06;;;;;;;;;;;16.30;45.10;;;;;;5091210;28;19912;-88
2022/12/12 12:43:34;;;;;;;;;;;14.40;47.10;;;;;;5092891;28;19973;-88
2022/12/12 12:46:06;;;;;;;;;;;13.30;48.80;;;;;;5091637;28;19908;-87
2022/12/12 12:48:34;;;;;;;;;;;14.30;51.70;;;;;;5091559;28;19916;-87
2022/12/12 12:51:23;;;;;;;;;;;15.60;50.80;;;;;;5091162;28;19947;-86
2022/12/12 12:53:52;;;;;;;;;;;16.90;49.90;;;;;;5088531;28;19912;-87
2022/12/12 12:56:32;;;;;;;;;;;17.70;48.10;;;;;;5092612;28;19964;-87
2022/12/12 12:59:00;;;;;;;;;;;18.10;46.90;;;;;;5092522;28;19924;-86
2022/12/12 13:01:30;;;;;;;;;;;17.50;47.80;;;;;;5091004;28;19908;-87
2022/12/12 13:04:15;;;;;;;;;;;16.70;48.40;;;;;;5091449;28;20289;-87
2022/12/12 13:06:52;;;;;;;;;;;16.40;49.30;;;;;;5091067;28;20003;-87
2022/12/12 13:09:37;;;;;;;;;;;17.10;48.40;;;;;;5091183;28;20378;-88
2022/12/12 13:12:12;;;;;;;;;;;17.40;48.00;;;;;;5090898;28;19962;-88
2022/12/12 13:14:50;;;;;;;;;;;17.30;47.40;;;;;;5092722;28;19915;-85
2022/12/12 13:17:17;;;;;;;;;;;17.50;47.60;;;;;;5091339;28;19912;-87
2022/12/12 13:19:45;;;;;;;;;;;17.50;46.60;;;;;;5092180;28;20365;-87
2022/12/12 13:22:13;;;;;;;;;;;17.30;47.00;;;;;;5092076;28;19964;-87
2022/12/12 13:24:48;;;;;;;;;;;16.70;46.70;;;;;;5076826;28;20410;-86
2022/12/12 13:27:21;;;;;;;;;;;16.30;47.50;;;;;;5074260;28;19909;-84
2022/12/12 13:29:54;;;;;;;;;;;16.00;48.00;;;;;;5074295;28;19930;-86
2022/12/12 13:32:35;;;;;;;;;;;15.10;48.50;;;;;;5074171;28;20020;-85
2022/12/12 13:35:06;;;;;;;;;;;13.70;48.70;;;;;;5074073;28;20388;-84
2022/12/12 13:37:34;;;;;;;;;;;12.40;50.20;;;;;;5074258;28;19913;-86
2022/12/12 13:40:03;;;;;;;;;;;11.20;52.70;;;;;;5074018;28;19912;-85
2022/12/12 13:42:50;;;;;;;;;;;10.20;55.70;;;;;;5073811;28;20876;-85
2022/12/12 13:45:31;;;;;;;;;;;9.50;58.50;;;;;;5074110;28;19997;-85
2022/12/12 13:47:59;;;;;;;;;;;8.80;61.70;;;;;;5074054;28;19908;-85
2022/12/12 13:50:24;;;;;;;;;;;8.10;67.20;;;;;;5073907;28;20050;-84
2022/12/12 13:53:05;;;;;;;;;;;7.70;75.40;;;;;;5073650;28;19966;-85
2022/12/12 13:55:31;;;;;;;;;;;7.30;83.40;;;;;;5073636;28;20003;-84
2022/12/12 13:57:57;;;;;;;;;;;7.00;93.40;;;;;;5073780;28;20046;-83
2022/12/12 14:00:24;;;;;;;;;;;6.80;96.30;;;;;;5073538;28;20359;-84
2022/12/12 14:02:55;;;;;;;;;;;6.60;99.90;;;;;;5084978;28;20324;-84
2022/12/12 14:05:20;;;;;;;;;;;6.40;99.90;;;;;;5095628;28;19930;-85
2022/12/12 14:07:59;;;;;;;;;;;6.30;99.90;;;;;;5075865;28;20366;-86
2022/12/12 14:10:32;;;;;;;;;;;6.10;99.90;;;;;;5078549;28;19999;-84
2022/12/12 14:13:14;;;;;;;;;;;6.00;99.90;;;;;;5073240;28;19999;-84
2022/12/12 14:15:40;;;;;;;;;;;5.90;99.90;;;;;;5074486;28;19909;-84
2022/12/12 14:18:16;;;;;;;;;;;5.90;99.90;;;;;;5073252;28;20361;-84
2022/12/12 14:20:42;;;;;;;;;;;5.80;99.90;;;;;;5075103;28;20439;-83
2022/12/12 14:23:21;;;;;;;;;;;5.70;99.90;;;;;;5092423;28;19908;-84
2022/12/12 14:25:46;;;;;;;;;;;5.70;99.90;;;;;;5093047;28;20387;-84
2022/12/12 14:28:12;;;;;;;;;;;5.60;99.90;;;;;;5091320;28;19991;-84
2022/12/12 14:30:45;;;;;;;;;;;5.50;99.90;;;;;;5087492;28;19916;-85
2022/12/12 14:33:16;;;;;;;;;;;5.40;99.90;;;;;;5091078;28;19992;-86
2022/12/12 14:35:46;;;;;;;;;;;5.30;99.90;;;;;;5092889;28;19957;-85
2022/12/12 14:38:17;;;;;;;;;;;5.20;99.90;;;;;;5084374;28;20285;-86
2022/12/12 14:40:47;;;;;;;;;;;5.10;99.90;;;;;;5086395;28;20365;-87
2022/12/12 14:43:18;;;;;;;;;;;5.00;99.90;;;;;;5092847;28;19908;-86
2022/12/12 14:45:49;;;;;;;;;;;4.90;99.90;;;;;;5092930;28;19912;-87
2022/12/12 14:48:16;;;;;;;;;;;4.80;99.90;;;;;;5093155;28;19957;-86
2022/12/12 14:50:53;;;;;;;;;;;4.70;99.90;;;;;;5092620;28;19908;-87
2022/12/12 14:53:20;;;;;;;;;;;4.60;99.90;;;;;;5092707;28;19912;-86
2022/12/12 14:55:56;;;;;;;;;;;4.50;99.90;;;;;;5090761;28;19908;-85
2022/12/12 14:58:25;;;;;;;;;;;4.40;99.90;;;;;;5091696;28;19912;-86